sensor_id;sensor_type;location;lat;lon;timestamp;pressure;altitude;pressure_sealevel;temperature;humidity
60725;BME280;59881;36.722;-4.462;2023-03-23T00:01:54;100697.47;;;10.84;76.33
60725;BME280;59881;36.722;-4.462;2023-03-23T00:04:19;100976.53;;;12.49;76.58
60725;BME280;59881;36.722;-4.462;2023-03-23T00:06:46;100798.88;;;11.44;76.59
60725;BME280;59881;36.722;-4.462;2023-03-23T00:09:13;100355.94;;;8.77;76.53
60725;BME280;59881;36.722;-4.462;2023-03-23T00:11:41;100707.25;;;10.29;76.57
60725;BME280;59881;36.722;-4.462;2023-03-23T00:14:07;100967.22;;;12.43;76.59
60725;BME280;59881;36.722;-4.462;2023-03-23T00:16:40;100964.06;;;12.38;76.23
60725;BME280;59881;36.722;-4.462;2023-03-23T00:19:11;100754.84;;;11.06;76.13
60725;BME280;59881;36.722;-4.462;2023-03-23T00:21:41;100734.34;;;10.71;75.71
60725;BME280;59881;36.722;-4.462;2023-03-23T00:24:16;100956.88;;;12.27;75.61
60725;BME280;59881;36.722;-4.462;2023-03-23T00:26:44;100865.38;;;11.62;75.41
60725;BME280;59881;36.722;-4.462;2023-03-23T00:29:19;100401.44;;;8.63;74.64
60725;BME280;59881;36.722;-4.462;2023-03-23T00:31:47;100700.09;;;10.59;74.73
60725;BME280;59881;36.722;-4.462;2023-03-23T00:34:15;100395.88;;;8.67;74.29
60725;BME280;59881;36.722;-4.462;2023-03-23T00:36:46;100687.81;;;10.45;74.47
60725;BME280;59881;36.722;-4.462;2023-03-23T00:39:12;101091.19;;;11.66;74.04
60725;BME280;59881;36.722;-4.462;2023-03-23T00:41:42;100523.44;;;9.42;73.91
60725;BME280;59881;36.722;-4.462;2023-03-23T00:44:07;100792.09;;;11.02;73.83
60725;BME280;59881;36.722;-4.462;2023-03-23T00:46:34;100427.06;;;8.45;73.56
60725;BME280;59881;36.722;-4.462;2023-03-23T00:48:59;100748.44;;;10.16;73.55
60725;BME280;59881;36.722;-4.462;2023-03-23T00:51:25;100952.56;;;12.00;73.80
60725;BME280;59881;36.722;-4.462;2023-03-23T00:53:51;100786.81;;;11.02;73.36
60725;BME280;59881;36.722;-4.462;2023-03-23T00:56:17;100833.19;;;11.31;73.31
60725;BME280;59881;36.722;-4.462;2023-03-23T00:58:42;100408.09;;;8.68;72.94
60725;BME280;59881;36.722;-4.462;2023-03-23T01:01:09;99923.56;;;5.77;72.39
60725;BME280;59881;36.722;-4.462;2023-03-23T01:03:35;100775.09;;;10.93;73.03
60725;BME280;59881;36.722;-4.462;2023-03-23T01:06:09;100903.41;;;11.72;73.18
60725;BME280;59881;36.722;-4.462;2023-03-23T01:08:39;100878.03;;;11.57;72.56
60725;BME280;59881;36.722;-4.462;2023-03-23T01:11:14;100855.84;;;11.47;72.36
60725;BME280;59881;36.722;-4.462;2023-03-23T01:13:41;100431.22;;;8.90;71.68
60725;BME280;59881;36.722;-4.462;2023-03-23T01:16:07;100785.44;;;10.96;71.98
60725;BME280;59881;36.722;-4.462;2023-03-23T01:18:33;100947.44;;;11.85;71.86
60725;BME280;59881;36.722;-4.462;2023-03-23T01:21:04;100866.09;;;11.38;71.42
60725;BME280;59881;36.722;-4.462;2023-03-23T01:23:32;100465.38;;;8.76;71.27
60725;BME280;59881;36.722;-4.462;2023-03-23T01:26:07;100268.88;;;7.71;71.21
60725;BME280;59881;36.722;-4.462;2023-03-23T01:28:34;100417.28;;;8.61;71.37
60725;BME280;59881;36.722;-4.462;2023-03-23T01:31:08;100926.63;;;11.67;71.69
60725;BME280;59881;36.722;-4.462;2023-03-23T01:33:34;100919.75;;;11.65;71.69
60725;BME280;59881;36.722;-4.462;2023-03-23T01:36:05;100927.03;;;11.61;71.56
60725;BME280;59881;36.722;-4.462;2023-03-23T01:38:31;100551.06;;;9.35;70.98
60725;BME280;59881;36.722;-4.462;2023-03-23T01:40:57;100912.13;;;11.60;71.63
60725;BME280;59881;36.722;-4.462;2023-03-23T01:43:23;100935.88;;;11.60;71.14
60725;BME280;59881;36.722;-4.462;2023-03-23T01:45:49;100856.47;;;11.25;71.46
60725;BME280;59881;36.722;-4.462;2023-03-23T01:48:21;100337.25;;;8.11;70.73
60725;BME280;59881;36.722;-4.462;2023-03-23T01:50:58;100214.25;;;6.61;70.90
60725;BME280;59881;36.722;-4.462;2023-03-23T01:53:30;100996.50;;;11.34;71.02
60725;BME280;59881;36.722;-4.462;2023-03-23T01:55:57;100494.44;;;9.02;70.66
60725;BME280;59881;36.722;-4.462;2023-03-23T01:58:27;100240.59;;;7.47;70.48
60725;BME280;59881;36.722;-4.462;2023-03-23T02:00:55;100926.94;;;10.54;71.09
60725;BME280;59881;36.722;-4.462;2023-03-23T02:03:22;100720.00;;;10.35;70.89
60725;BME280;59881;36.722;-4.462;2023-03-23T02:05:49;100488.56;;;8.84;70.73
60725;BME280;59881;36.722;-4.462;2023-03-23T02:08:17;100215.59;;;7.28;70.54
60725;BME280;59881;36.722;-4.462;2023-03-23T02:10:43;100346.34;;;8.05;70.34
60725;BME280;59881;36.722;-4.462;2023-03-23T02:13:10;100586.38;;;9.30;70.25
60725;BME280;59881;36.722;-4.462;2023-03-23T02:16:43;100970.31;;;11.04;70.61
60725;BME280;59881;36.722;-4.462;2023-03-23T02:24:23;100877.50;;;11.39;69.17
60725;BME280;59881;36.722;-4.462;2023-03-23T02:35:58;100852.41;;;11.59;65.97
60725;BME280;59881;36.722;-4.462;2023-03-23T02:38:34;100173.03;;;7.38;65.33
60725;BME280;59881;36.722;-4.462;2023-03-23T02:41:02;100842.81;;;11.58;65.74
60725;BME280;59881;36.722;-4.462;2023-03-23T02:43:33;99866.88;;;5.18;65.08
60725;BME280;59881;36.722;-4.462;2023-03-23T02:46:01;100405.97;;;8.88;65.22
60725;BME280;59881;36.722;-4.462;2023-03-23T02:48:32;100837.38;;;11.47;65.53
60725;BME280;59881;36.722;-4.462;2023-03-23T02:51:00;100835.19;;;11.41;65.89
60725;BME280;59881;36.722;-4.462;2023-03-23T02:53:28;100833.38;;;11.41;66.00
60725;BME280;59881;36.722;-4.462;2023-03-23T02:55:57;100639.69;;;10.28;65.51
60725;BME280;59881;36.722;-4.462;2023-03-23T02:58:23;100822.75;;;11.43;65.89
60725;BME280;59881;36.722;-4.462;2023-03-23T03:00:51;100929.19;;;11.42;65.57
60725;BME280;59881;36.722;-4.462;2023-03-23T03:03:19;100349.25;;;7.86;65.09
60725;BME280;59881;36.722;-4.462;2023-03-23T03:08:37;100812.59;;;11.36;65.34
60725;BME280;59881;36.722;-4.462;2023-03-23T03:11:08;100420.19;;;8.98;65.02
60725;BME280;59881;36.722;-4.462;2023-03-23T03:13:55;100811.88;;;11.34;65.13
60725;BME280;59881;36.722;-4.462;2023-03-23T03:21:40;100796.78;;;11.49;64.85
60725;BME280;59881;36.722;-4.462;2023-03-23T03:24:07;100708.47;;;11.04;64.36
60725;BME280;59881;36.722;-4.462;2023-03-23T03:26:38;100589.09;;;10.38;64.28
60725;BME280;59881;36.722;-4.462;2023-03-23T03:29:07;100963.88;;;11.63;64.46
60725;BME280;59881;36.722;-4.462;2023-03-23T03:31:36;100848.28;;;11.68;64.33
60725;BME280;59881;36.722;-4.462;2023-03-23T03:34:04;100629.88;;;10.18;63.95
60725;BME280;59881;36.722;-4.462;2023-03-23T03:36:32;100547.47;;;9.36;63.66
60725;BME280;59881;36.722;-4.462;2023-03-23T03:39:02;100791.81;;;11.70;63.21
60725;BME280;59881;36.722;-4.462;2023-03-23T03:41:30;100891.34;;;11.68;63.49
60725;BME280;59881;36.722;-4.462;2023-03-23T03:43:56;100844.81;;;11.67;62.92
60725;BME280;59881;36.722;-4.462;2023-03-23T03:46:21;100350.53;;;9.05;62.71
60725;BME280;59881;36.722;-4.462;2023-03-23T03:48:47;100541.22;;;10.18;62.47
60725;BME280;59881;36.722;-4.462;2023-03-23T03:51:12;100158.16;;;7.53;62.11
60725;BME280;59881;36.722;-4.462;2023-03-23T03:53:38;100644.03;;;10.02;61.56
60725;BME280;59881;36.722;-4.462;2023-03-23T03:56:03;99020.22;;;0.81;60.81
60725;BME280;59881;36.722;-4.462;2023-03-23T03:58:29;100266.81;;;8.46;61.15
60725;BME280;59881;36.722;-4.462;2023-03-23T04:00:59;100794.13;;;11.62;60.89
60725;BME280;59881;36.722;-4.462;2023-03-23T04:03:26;100625.13;;;9.83;60.05
60725;BME280;59881;36.722;-4.462;2023-03-23T04:05:55;100929.56;;;11.63;60.02
60725;BME280;59881;36.722;-4.462;2023-03-23T04:08:24;100249.28;;;7.77;59.69
60725;BME280;59881;36.722;-4.462;2023-03-23T04:10:50;100803.31;;;11.69;59.83
60725;BME280;59881;36.722;-4.462;2023-03-23T04:13:16;100608.63;;;10.21;59.53
60725;BME280;59881;36.722;-4.462;2023-03-23T04:15:43;100798.47;;;11.63;59.69
60725;BME280;59881;36.722;-4.462;2023-03-23T04:18:09;100101.44;;;7.38;59.67
60725;BME280;59881;36.722;-4.462;2023-03-23T04:20:34;100450.66;;;9.42;59.96
60725;BME280;59881;36.722;-4.462;2023-03-23T04:23:00;100801.41;;;11.46;60.47
60725;BME280;59881;36.722;-4.462;2023-03-23T04:25:27;100528.69;;;9.69;60.72
60725;BME280;59881;36.722;-4.462;2023-03-23T04:27:53;100811.88;;;11.34;61.53
60725;BME280;59881;36.722;-4.462;2023-03-23T04:30:21;100816.28;;;11.34;62.08
60725;BME280;59881;36.722;-4.462;2023-03-23T04:32:48;101006.84;;;11.37;62.87
60725;BME280;59881;36.722;-4.462;2023-03-23T04:35:21;100719.81;;;10.91;63.78
60725;BME280;59881;36.722;-4.462;2023-03-23T04:37:47;100594.81;;;10.17;63.92
60725;BME280;59881;36.722;-4.462;2023-03-23T04:40:15;100796.69;;;11.38;64.18
60725;BME280;59881;36.722;-4.462;2023-03-23T04:42:42;100840.78;;;11.36;64.24
60725;BME280;59881;36.722;-4.462;2023-03-23T04:45:12;100123.72;;;7.31;64.38
60725;BME280;59881;36.722;-4.462;2023-03-23T04:47:40;100403.81;;;8.95;63.78
60725;BME280;59881;36.722;-4.462;2023-03-23T04:50:11;100794.56;;;11.30;63.76
60725;BME280;59881;36.722;-4.462;2023-03-23T04:52:39;100307.84;;;7.49;62.79
60725;BME280;59881;36.722;-4.462;2023-03-23T04:55:07;100492.38;;;8.93;62.11
60725;BME280;59881;36.722;-4.462;2023-03-23T04:57:33;100874.50;;;11.31;61.61
60725;BME280;59881;36.722;-4.462;2023-03-23T05:00:03;99597.91;;;4.01;61.41
60725;BME280;59881;36.722;-4.462;2023-03-23T05:02:38;100796.34;;;11.30;61.31
60725;BME280;59881;36.722;-4.462;2023-03-23T05:05:11;100792.56;;;11.34;60.85
60725;BME280;59881;36.722;-4.462;2023-03-23T05:07:38;100794.22;;;11.35;60.84
60725;BME280;59881;36.722;-4.462;2023-03-23T05:10:05;100136.16;;;7.27;60.68
60725;BME280;59881;36.722;-4.462;2023-03-23T05:12:31;100761.03;;;10.80;60.73
60725;BME280;59881;36.722;-4.462;2023-03-23T05:14:57;100830.13;;;11.25;61.56
60725;BME280;59881;36.722;-4.462;2023-03-23T05:17:22;100263.91;;;7.95;61.38
60725;BME280;59881;36.722;-4.462;2023-03-23T05:19:52;100460.44;;;8.43;61.30
60725;BME280;59881;36.722;-4.462;2023-03-23T05:22:19;100808.28;;;11.23;61.80
60725;BME280;59881;36.722;-4.462;2023-03-23T05:24:46;100697.75;;;10.54;61.59
60725;BME280;59881;36.722;-4.462;2023-03-23T05:27:13;100819.84;;;11.20;62.29
60725;BME280;59881;36.722;-4.462;2023-03-23T05:29:40;100570.75;;;9.69;62.42
60725;BME280;59881;36.722;-4.462;2023-03-23T05:32:09;100516.28;;;9.17;63.09
60725;BME280;59881;36.722;-4.462;2023-03-23T05:34:36;100756.16;;;10.61;63.32
60725;BME280;59881;36.722;-4.462;2023-03-23T05:37:02;100658.94;;;10.16;63.18
60725;BME280;59881;36.722;-4.462;2023-03-23T05:39:29;100810.13;;;10.68;63.63
60725;BME280;59881;36.722;-4.462;2023-03-23T05:41:56;100411.56;;;7.97;63.86
60725;BME280;59881;36.722;-4.462;2023-03-23T05:44:22;100647.03;;;10.10;63.85
60725;BME280;59881;36.722;-4.462;2023-03-23T05:46:48;100835.13;;;11.15;64.44
60725;BME280;59881;36.722;-4.462;2023-03-23T05:49:14;100670.72;;;10.10;64.35
60725;BME280;59881;36.722;-4.462;2023-03-23T05:51:44;99973.91;;;5.80;64.33
60725;BME280;59881;36.722;-4.462;2023-03-23T05:54:11;100839.22;;;11.06;64.70
60725;BME280;59881;36.722;-4.462;2023-03-23T05:56:37;100843.56;;;11.07;64.98
60725;BME280;59881;36.722;-4.462;2023-03-23T05:59:03;100841.78;;;11.08;65.32
60725;BME280;59881;36.722;-4.462;2023-03-23T06:01:29;100646.81;;;9.86;64.72
60725;BME280;59881;36.722;-4.462;2023-03-23T06:03:55;100839.44;;;11.03;64.97
60725;BME280;59881;36.722;-4.462;2023-03-23T06:06:26;100745.41;;;10.37;64.79
60725;BME280;59881;36.722;-4.462;2023-03-23T06:08:52;100842.38;;;10.98;64.80
60725;BME280;59881;36.722;-4.462;2023-03-23T06:11:18;100850.16;;;11.00;64.85
60725;BME280;59881;36.722;-4.462;2023-03-23T06:13:44;100704.19;;;10.08;64.89
60725;BME280;59881;36.722;-4.462;2023-03-23T06:16:10;100478.09;;;8.11;64.78
60725;BME280;59881;36.722;-4.462;2023-03-23T06:18:36;100857.25;;;11.00;64.78
60725;BME280;59881;36.722;-4.462;2023-03-23T06:21:05;100804.75;;;10.69;64.90
60725;BME280;59881;36.722;-4.462;2023-03-23T06:23:31;100957.97;;;11.05;65.22
60725;BME280;59881;36.722;-4.462;2023-03-23T06:25:59;100871.53;;;11.10;64.93
60725;BME280;59881;36.722;-4.462;2023-03-23T06:28:25;100630.75;;;9.49;65.31
60725;BME280;59881;36.722;-4.462;2023-03-23T06:30:52;100765.13;;;11.49;65.87
60725;BME280;59881;36.722;-4.462;2023-03-23T06:33:18;100933.78;;;13.04;64.67
60725;BME280;59881;36.722;-4.462;2023-03-23T06:35:44;100563.38;;;12.14;62.26
60725;BME280;59881;36.722;-4.462;2023-03-23T06:38:10;100177.25;;;10.51;59.13
60725;BME280;59881;36.722;-4.462;2023-03-23T06:40:36;100624.59;;;13.35;56.19
60725;BME280;59881;36.722;-4.462;2023-03-23T06:43:02;100662.78;;;15.15;53.14
60725;BME280;59881;36.722;-4.462;2023-03-23T06:45:29;99973.09;;;11.57;50.35
60725;BME280;59881;36.722;-4.462;2023-03-23T06:47:55;100841.78;;;17.72;47.99
60725;BME280;59881;36.722;-4.462;2023-03-23T06:50:20;100407.34;;;15.13;45.25
60725;BME280;59881;36.722;-4.462;2023-03-23T06:52:47;100321.34;;;15.25;43.30
60725;BME280;59881;36.722;-4.462;2023-03-23T06:55:14;100946.28;;;19.33;41.79
60725;BME280;59881;36.722;-4.462;2023-03-23T06:57:40;100306.97;;;16.86;40.11
60725;BME280;59881;36.722;-4.462;2023-03-23T07:00:07;100453.44;;;17.48;38.71
60725;BME280;59881;36.722;-4.462;2023-03-23T07:02:41;100845.03;;;21.26;37.48
60725;BME280;59881;36.722;-4.462;2023-03-23T07:05:11;100831.41;;;21.85;36.19
60725;BME280;59881;36.722;-4.462;2023-03-23T07:07:37;100720.03;;;21.58;34.99
60725;BME280;59881;36.722;-4.462;2023-03-23T07:10:06;100841.28;;;22.87;33.84
60725;BME280;59881;36.722;-4.462;2023-03-23T07:12:31;100853.81;;;23.41;32.86
60725;BME280;59881;36.722;-4.462;2023-03-23T07:14:58;100776.31;;;23.44;31.72
60725;BME280;59881;36.722;-4.462;2023-03-23T07:17:24;100855.81;;;24.36;30.83
60725;BME280;59881;36.722;-4.462;2023-03-23T07:19:50;100630.13;;;23.30;30.53
60725;BME280;59881;36.722;-4.462;2023-03-23T07:22:16;100852.84;;;25.25;29.31
60725;BME280;59881;36.722;-4.462;2023-03-23T07:24:41;100848.81;;;25.71;29.08
60725;BME280;59881;36.722;-4.462;2023-03-23T07:27:07;100248.31;;;22.61;28.05
60725;BME280;59881;36.722;-4.462;2023-03-23T07:29:32;100554.19;;;24.86;28.00
60725;BME280;59881;36.722;-4.462;2023-03-23T07:32:01;100330.25;;;23.99;27.50
60725;BME280;59881;36.722;-4.462;2023-03-23T07:34:27;100868.09;;;27.72;26.94
60725;BME280;59881;36.722;-4.462;2023-03-23T07:36:53;100591.16;;;26.48;26.49
60725;BME280;59881;36.722;-4.462;2023-03-23T07:39:19;100112.28;;;23.86;26.28
60725;BME280;59881;36.722;-4.462;2023-03-23T07:41:45;100375.84;;;25.90;25.83
60725;BME280;59881;36.722;-4.462;2023-03-23T07:44:10;100859.00;;;29.34;25.24
60725;BME280;59881;36.722;-4.462;2023-03-23T07:46:36;100755.19;;;28.95;24.95
60725;BME280;59881;36.722;-4.462;2023-03-23T07:49:02;100731.09;;;29.12;24.73
60725;BME280;59881;36.722;-4.462;2023-03-23T07:51:31;100867.00;;;30.46;23.91
60725;BME280;59881;36.722;-4.462;2023-03-23T07:53:57;100865.81;;;31.14;22.79
60725;BME280;59881;36.722;-4.462;2023-03-23T07:56:23;100820.09;;;31.46;22.18
60725;BME280;59881;36.722;-4.462;2023-03-23T07:58:49;100872.47;;;32.12;21.92
60725;BME280;59881;36.722;-4.462;2023-03-23T08:01:14;100904.75;;;32.44;21.06
60725;BME280;59881;36.722;-4.462;2023-03-23T08:03:41;100798.78;;;32.07;20.65
60725;BME280;59881;36.722;-4.462;2023-03-23T08:06:07;100868.78;;;32.47;20.64
60725;BME280;59881;36.722;-4.462;2023-03-23T08:08:33;100880.13;;;33.13;20.15
60725;BME280;59881;36.722;-4.462;2023-03-23T08:10:59;100289.69;;;29.78;20.03
60725;BME280;59881;36.722;-4.462;2023-03-23T08:13:25;100985.81;;;33.80;19.57
60725;BME280;59881;36.722;-4.462;2023-03-23T08:15:50;100627.16;;;32.58;21.26
60725;BME280;59881;36.722;-4.462;2023-03-23T08:18:16;100879.53;;;34.45;20.11
60725;BME280;59881;36.722;-4.462;2023-03-23T08:20:43;100613.28;;;32.60;19.63
60725;BME280;59881;36.722;-4.462;2023-03-23T08:23:10;100870.41;;;34.61;21.01
60725;BME280;59881;36.722;-4.462;2023-03-23T08:25:36;100820.53;;;34.76;19.95
60725;BME280;59881;36.722;-4.462;2023-03-23T08:28:03;100823.50;;;35.07;19.49
60725;BME280;59881;36.722;-4.462;2023-03-23T08:30:30;100897.31;;;36.09;18.14
60725;BME280;59881;36.722;-4.462;2023-03-23T08:32:58;100894.06;;;36.12;18.30
60725;BME280;59881;36.722;-4.462;2023-03-23T08:35:25;100892.44;;;36.26;17.74
60725;BME280;59881;36.722;-4.462;2023-03-23T08:37:51;100760.63;;;35.70;16.34
60725;BME280;59881;36.722;-4.462;2023-03-23T08:40:19;100893.72;;;37.07;16.25
60725;BME280;59881;36.722;-4.462;2023-03-23T08:42:46;100786.66;;;36.77;16.05
60725;BME280;59881;36.722;-4.462;2023-03-23T08:45:16;100859.41;;;37.31;15.32
60725;BME280;59881;36.722;-4.462;2023-03-23T08:47:43;100783.09;;;36.71;15.26
60725;BME280;59881;36.722;-4.462;2023-03-23T08:50:15;100627.22;;;35.76;14.84
60725;BME280;59881;36.722;-4.462;2023-03-23T08:52:41;100702.34;;;37.03;14.26
60725;BME280;59881;36.722;-4.462;2023-03-23T08:55:07;100537.59;;;36.28;14.53
60725;BME280;59881;36.722;-4.462;2023-03-23T08:57:35;100924.25;;;38.92;13.87
60725;BME280;59881;36.722;-4.462;2023-03-23T09:00:03;100924.59;;;39.20;13.67
60725;BME280;59881;36.722;-4.462;2023-03-23T09:02:42;100049.28;;;32.94;14.23
60725;BME280;59881;36.722;-4.462;2023-03-23T09:05:09;100935.19;;;39.03;13.80
60725;BME280;59881;36.722;-4.462;2023-03-23T09:07:39;100925.69;;;38.35;14.09
60725;BME280;59881;36.722;-4.462;2023-03-23T09:10:06;100647.63;;;35.37;14.73
60725;BME280;59881;36.722;-4.462;2023-03-23T09:12:32;100582.22;;;34.40;14.78
60725;BME280;59881;36.722;-4.462;2023-03-23T09:14:58;100936.69;;;36.45;14.69
60725;BME280;59881;36.722;-4.462;2023-03-23T09:17:23;100602.81;;;34.53;14.88
60725;BME280;59881;36.722;-4.462;2023-03-23T09:19:49;100907.06;;;36.47;15.67
60725;BME280;59881;36.722;-4.462;2023-03-23T09:22:14;100947.09;;;36.38;16.47
60725;BME280;59881;36.722;-4.462;2023-03-23T09:24:45;100857.34;;;35.66;16.63
60725;BME280;59881;36.722;-4.462;2023-03-23T09:27:11;100594.50;;;34.38;17.67
60725;BME280;59881;36.722;-4.462;2023-03-23T09:29:37;100907.75;;;36.12;17.13
60725;BME280;59881;36.722;-4.462;2023-03-23T09:32:03;100811.84;;;36.33;17.52
60725;BME280;59881;36.722;-4.462;2023-03-23T09:34:29;100960.22;;;37.76;17.21
60725;BME280;59881;36.722;-4.462;2023-03-23T09:36:54;100969.00;;;38.69;16.98
60725;BME280;59881;36.722;-4.462;2023-03-23T09:39:20;100972.63;;;39.43;16.84
60725;BME280;59881;36.722;-4.462;2023-03-23T09:44:21;100976.41;;;40.78;15.83
60725;BME280;59881;36.722;-4.462;2023-03-23T09:49:28;100977.38;;;40.87;15.99
60725;BME280;59881;36.722;-4.462;2023-03-23T09:51:57;100984.44;;;40.31;16.41
60725;BME280;59881;36.722;-4.462;2023-03-23T09:56:59;100937.66;;;42.87;14.20
60725;BME280;59881;36.722;-4.462;2023-03-23T09:59:49;100978.69;;;43.75;14.18
60725;BME280;59881;36.722;-4.462;2023-03-23T10:02:26;100915.81;;;44.19;13.29
60725;BME280;59881;36.722;-4.462;2023-03-23T10:04:55;100616.19;;;42.70;12.88
60725;BME280;59881;36.722;-4.462;2023-03-23T10:07:26;100635.47;;;43.58;12.09
60725;BME280;59881;36.722;-4.462;2023-03-23T10:09:56;100718.53;;;44.51;11.85
60725;BME280;59881;36.722;-4.462;2023-03-23T10:15:16;100991.22;;;46.97;11.17
60725;BME280;59881;36.722;-4.462;2023-03-23T10:18:00;101047.28;;;47.38;11.51
60725;BME280;59881;36.722;-4.462;2023-03-23T10:23:39;100985.81;;;47.46;10.49
60725;BME280;59881;36.722;-4.462;2023-03-23T10:28:51;100984.38;;;47.86;9.96
60725;BME280;59881;36.722;-4.462;2023-03-23T10:31:43;101001.94;;;48.36;9.49
60725;BME280;59881;36.722;-4.462;2023-03-23T10:34:20;100968.91;;;48.13;9.75
60725;BME280;59881;36.722;-4.462;2023-03-23T10:36:59;100984.81;;;49.02;8.90
60725;BME280;59881;36.722;-4.462;2023-03-23T10:39:37;100963.88;;;49.40;8.90
60725;BME280;59881;36.722;-4.462;2023-03-23T10:42:04;100993.94;;;48.87;9.17
60725;BME280;59881;36.722;-4.462;2023-03-23T10:44:33;100988.09;;;48.39;9.12
60725;BME280;59881;36.722;-4.462;2023-03-23T10:47:07;100997.16;;;47.62;9.98
60725;BME280;59881;36.722;-4.462;2023-03-23T10:49:38;100990.84;;;46.06;11.30
60725;BME280;59881;36.722;-4.462;2023-03-23T10:55:11;100473.25;;;37.93;13.38
60725;BME280;59881;36.722;-4.462;2023-03-23T10:57:39;100653.88;;;32.95;18.98
60725;BME280;59881;36.722;-4.462;2023-03-23T11:00:19;101021.34;;;30.44;23.44
60725;BME280;59881;36.722;-4.462;2023-03-23T11:05:45;101034.09;;;25.42;31.75
60725;BME280;59881;36.722;-4.462;2023-03-23T11:08:21;101028.75;;;24.23;34.59
60725;BME280;59881;36.722;-4.462;2023-03-23T11:10:51;101031.34;;;23.79;36.22
60725;BME280;59881;36.722;-4.462;2023-03-23T11:13:19;100930.53;;;22.74;37.29
60725;BME280;59881;36.722;-4.462;2023-03-23T11:15:47;101004.91;;;22.65;38.86
60725;BME280;59881;36.722;-4.462;2023-03-23T11:20:48;101049.09;;;22.38;39.79
60725;BME280;59881;36.722;-4.462;2023-03-23T11:26:14;101047.94;;;22.08;41.89
60725;BME280;59881;36.722;-4.462;2023-03-23T11:31:22;100968.91;;;21.04;42.78
60725;BME280;59881;36.722;-4.462;2023-03-23T11:34:15;101045.75;;;21.62;42.21
60725;BME280;59881;36.722;-4.462;2023-03-23T11:36:47;101044.84;;;21.37;43.43
60725;BME280;59881;36.722;-4.462;2023-03-23T11:39:31;100644.09;;;18.76;43.35
60725;BME280;59881;36.722;-4.462;2023-03-23T11:41:59;101058.34;;;21.19;43.92
60725;BME280;59881;36.722;-4.462;2023-03-23T11:44:33;101050.06;;;20.96;45.76
60725;BME280;59881;36.722;-4.462;2023-03-23T11:47:08;100645.69;;;18.43;46.42
60725;BME280;59881;36.722;-4.462;2023-03-23T11:49:38;101047.66;;;20.77;47.19
60725;BME280;59881;36.722;-4.462;2023-03-23T11:55:14;100990.19;;;20.11;47.34
60725;BME280;59881;36.722;-4.462;2023-03-23T11:57:37;100662.53;;;18.07;46.50
60725;BME280;59881;36.722;-4.462;2023-03-23T12:00:15;99902.44;;;13.24;46.79
60725;BME280;59881;36.722;-4.462;2023-03-23T12:08:34;101031.72;;;20.23;43.75
60725;BME280;59881;36.722;-4.462;2023-03-23T12:11:20;101020.56;;;20.27;43.04
60725;BME280;59881;36.722;-4.462;2023-03-23T12:14:03;101004.47;;;20.19;43.54
60725;BME280;59881;36.722;-4.462;2023-03-23T12:33:17;101078.47;;;20.11;44.59
60725;BME280;59881;36.722;-4.462;2023-03-23T12:35:57;101012.00;;;19.98;44.55
60725;BME280;59881;36.722;-4.462;2023-03-23T12:43:35;100999.16;;;20.01;41.36
60725;BME280;59881;36.722;-4.462;2023-03-23T12:48:59;100986.19;;;19.89;41.19
60725;BME280;59881;36.722;-4.462;2023-03-23T12:53:56;100970.63;;;19.84;40.39
60725;BME280;59881;36.722;-4.462;2023-03-23T12:56:26;100965.97;;;19.86;40.77
60725;BME280;59881;36.722;-4.462;2023-03-23T12:59:02;100571.19;;;17.42;41.12
60725;BME280;59881;36.722;-4.462;2023-03-23T13:01:33;101009.19;;;19.81;40.77
60725;BME280;59881;36.722;-4.462;2023-03-23T13:04:04;100633.94;;;17.82;40.40
60725;BME280;59881;36.722;-4.462;2023-03-23T13:06:39;100616.81;;;17.84;40.93
60725;BME280;59881;36.722;-4.462;2023-03-23T13:11:53;100879.38;;;19.61;40.62
60725;BME280;59881;36.722;-4.462;2023-03-23T13:23:05;100862.75;;;19.49;38.79
60725;BME280;59881;36.722;-4.462;2023-03-23T13:28:00;100368.59;;;16.53;38.66
60725;BME280;59881;36.722;-4.462;2023-03-23T13:30:27;100854.41;;;19.52;39.86
60725;BME280;59881;36.722;-4.462;2023-03-23T13:33:02;100670.06;;;18.30;40.54
60725;BME280;59881;36.722;-4.462;2023-03-23T13:35:34;100802.59;;;19.19;41.05
60725;BME280;59881;36.722;-4.462;2023-03-23T13:38:01;100897.28;;;19.87;40.68
60725;BME280;59881;36.722;-4.462;2023-03-23T13:40:29;100891.56;;;19.81;38.96
60725;BME280;59881;36.722;-4.462;2023-03-23T13:42:58;100871.56;;;19.68;39.41
60725;BME280;59881;36.722;-4.462;2023-03-23T13:50:57;100794.53;;;19.11;41.03
60725;BME280;59881;36.722;-4.462;2023-03-23T13:53:45;100881.56;;;19.65;38.62
60725;BME280;59881;36.722;-4.462;2023-03-23T13:56:20;100893.69;;;19.34;38.38
60725;BME280;59881;36.722;-4.462;2023-03-23T13:58:49;100871.75;;;19.66;39.08
60725;BME280;59881;36.722;-4.462;2023-03-23T14:01:32;100866.22;;;19.68;40.30
60725;BME280;59881;36.722;-4.462;2023-03-23T14:03:59;100864.69;;;19.65;40.64
60725;BME280;59881;36.722;-4.462;2023-03-23T14:06:26;100857.94;;;19.71;40.73
60725;BME280;59881;36.722;-4.462;2023-03-23T14:09:05;100119.28;;;15.10;41.58
60725;BME280;59881;36.722;-4.462;2023-03-23T14:11:32;100741.47;;;18.90;41.94
60725;BME280;59881;36.722;-4.462;2023-03-23T14:14:06;100511.19;;;17.47;43.19
60725;BME280;59881;36.722;-4.462;2023-03-23T14:16:39;100858.78;;;19.53;43.92
60725;BME280;59881;36.722;-4.462;2023-03-23T14:19:26;100365.06;;;16.35;45.06
60725;BME280;59881;36.722;-4.462;2023-03-23T14:21:59;100471.47;;;16.90;44.03
60725;BME280;59881;36.722;-4.462;2023-03-23T14:24:28;100782.97;;;19.02;46.27
60725;BME280;59881;36.722;-4.462;2023-03-23T14:27:08;100883.59;;;19.46;46.24
60725;BME280;59881;36.722;-4.462;2023-03-23T14:29:34;100805.97;;;19.03;46.46
60725;BME280;59881;36.722;-4.462;2023-03-23T14:32:01;100778.97;;;18.88;46.06
60725;BME280;59881;36.722;-4.462;2023-03-23T14:34:29;100855.75;;;19.30;45.63
60725;BME280;59881;36.722;-4.462;2023-03-23T14:36:57;100685.16;;;18.39;45.43
60725;BME280;59881;36.722;-4.462;2023-03-23T14:39:26;100839.66;;;19.40;44.59
60725;BME280;59881;36.722;-4.462;2023-03-23T14:41:56;100758.78;;;18.86;43.54